Terminal Aerodrome Forecast
Issued by NWS Pocatello, ID

Current Version | Previous Version | Text Only | Print | Product List | Glossary On
Versions: 1 2 3 4 5 6 7 8 9 10 11 12 13 14
000
FTUS45 KPIH 072334
TAFPIH
TAF
KPIH 072334Z 0800/0824 34010KT P6SM VCTS FEW080CB SCT180
      TEMPO 0800/0802 VRB15G35KT TSRA BKN070CB
     FM080300 04007KT P6SM VCSH SCT100 BKN140
     FM081200 02007KT P6SM VCSH BKN130
     FM081900 VRB06KT P6SM VCTS SCT080CB BKN150=

USA.gov is the U.S. government's official web portal to all federal, state and local government web resources and services.